Time;durP1;ratioP1;P1;durP2;ratioP2;P2;SDS_P1;SDS_P2;PMS_P1;PMS_P2;Temp;Humidity;BMP_temperature;BMP_pressure;BME280_temperature;BME280_humidity;BME280_pressure;Samples;Min_cycle;Max_cycle;Signal;HPM_P1;HPM_P2
2022/03/21 00:00:04;;;;;;;40.15;21.82;;;;;;;-1.19;48.82;102746.03;1402173;93;21450;-81
2022/03/21 00:02:30;;;;;;;36.25;19.15;;;;;;;-1.20;49.60;102745.18;1399849;93;21369;-82
2022/03/21 00:04:56;;;;;;;64.50;29.00;;;;;;;-1.24;50.07;102742.17;1396128;92;21900;-81
2022/03/21 00:07:22;;;;;;;149.70;64.87;;;;;;;-1.27;51.47;102743.50;1399312;93;22377;-82
2022/03/21 00:09:50;;;;;;;115.20;53.83;;;;;;;-1.30;53.84;102745.28;1401831;93;22337;-81
2022/03/21 00:12:18;;;;;;;65.00;28.35;;;;;;;-1.34;51.57;102741.00;1399232;93;21923;-81
2022/03/21 00:14:44;;;;;;;46.83;23.77;;;;;;;-1.42;52.06;102743.22;1395994;93;21342;-82
2022/03/21 00:17:10;;;;;;;48.07;25.43;;;;;;;-1.47;51.34;102754.08;1391394;93;21439;-81
2022/03/21 00:19:36;;;;;;;51.13;24.07;;;;;;;-1.49;50.96;102754.55;1401198;93;21361;-81
2022/03/21 00:22:03;;;;;;;55.27;23.60;;;;;;;-1.50;50.80;102747.61;1390734;93;21521;-81
2022/03/21 00:24:28;;;;;;;67.97;28.20;;;;;;;-1.46;50.72;102744.13;1401409;93;21464;-81
2022/03/21 00:26:56;;;;;;;46.20;22.53;;;;;;;-1.42;50.24;102741.92;1401656;93;21379;-80
2022/03/21 00:29:23;;;;;;;53.87;24.00;;;;;;;-1.37;49.96;102741.44;1395679;93;21416;-79
2022/03/21 00:31:49;;;;;;;50.25;25.97;;;;;;;-1.31;49.81;102748.77;1401268;91;22310;-79
2022/03/21 00:34:15;;;;;;;49.83;23.40;;;;;;;-1.29;50.14;102744.42;1397085;93;21423;-79
2022/03/21 00:36:41;;;;;;;46.90;21.50;;;;;;;-1.28;49.74;102738.34;1396613;93;21350;-79
2022/03/21 00:39:07;;;;;;;43.97;21.80;;;;;;;-1.27;49.54;102737.45;1395717;93;21387;-78
2022/03/21 00:41:34;;;;;;;42.88;21.30;;;;;;;-1.25;49.08;102740.91;1396740;93;21929;-78
2022/03/21 00:44:00;;;;;;;52.58;21.30;;;;;;;-1.26;49.22;102739.19;1398233;93;21397;-79
2022/03/21 00:46:28;;;;;;;43.50;20.12;;;;;;;-1.27;49.31;102734.85;1399163;93;21423;-79
2022/03/21 00:48:53;;;;;;;44.18;21.10;;;;;;;-1.27;48.97;102740.05;1395726;93;21406;-79
2022/03/21 00:51:19;;;;;;;56.70;23.00;;;;;;;-1.25;49.07;102739.60;1401227;93;21402;-79
2022/03/21 00:53:45;;;;;;;46.23;21.60;;;;;;;-1.27;48.93;102729.21;1393267;93;21390;-79
2022/03/21 00:56:11;;;;;;;50.87;23.50;;;;;;;-1.26;49.16;102735.30;1400733;93;21301;-79
2022/03/21 00:58:37;;;;;;;46.47;20.80;;;;;;;-1.26;49.00;102731.40;1397897;92;21527;-79
2022/03/21 01:01:03;;;;;;;46.88;24.35;;;;;;;-1.25;48.47;102734.41;1398368;93;21379;-79
2022/03/21 01:03:29;;;;;;;48.50;23.27;;;;;;;-1.25;49.19;102729.21;1396214;93;22388;-79
2022/03/21 01:05:55;;;;;;;49.23;23.07;;;;;;;-1.29;49.73;102734.03;1397177;93;21394;-79
2022/03/21 01:08:21;;;;;;;50.10;23.87;;;;;;;-1.34;50.70;102733.20;1396533;93;21571;-79
2022/03/21 01:10:47;;;;;;;43.63;22.03;;;;;;;-1.41;49.44;102730.67;1391309;93;21468;-79
2022/03/21 01:13:14;;;;;;;49.35;22.85;;;;;;;-1.44;49.14;102730.70;1396216;93;21453;-79
2022/03/21 01:15:40;;;;;;;40.98;20.40;;;;;;;-1.49;48.93;102732.48;1399203;93;21688;-79
2022/03/21 01:18:06;;;;;;;41.33;20.00;;;;;;;-1.53;50.43;102728.16;1396630;93;21445;-79
2022/03/21 01:20:32;;;;;;;40.52;19.02;;;;;;;-1.56;49.86;102733.39;1400425;93;21423;-79
2022/03/21 01:22:58;;;;;;;44.10;21.60;;;;;;;-1.61;50.49;102735.19;1395176;93;21424;-79
2022/03/21 01:25:24;;;;;;;42.35;21.52;;;;;;;-1.66;51.64;102734.36;1398402;93;21608;-80
2022/03/21 01:27:50;;;;;;;44.77;20.77;;;;;;;-1.69;51.40;102725.30;1402415;93;22274;-82
2022/03/21 01:30:17;;;;;;;48.63;21.60;;;;;;;-1.70;50.63;102723.11;1398510;93;22985;-80
2022/03/21 01:32:45;;;;;;;37.98;21.02;;;;;;;-1.72;51.03;102724.88;1402247;91;21460;-80
2022/03/21 01:35:17;;;;;;;43.58;20.97;;;;;;;-1.75;50.13;102728.80;1400718;92;21416;-80
2022/03/21 01:37:44;;;;;;;37.03;19.32;;;;;;;-1.82;51.28;102720.63;1403071;92;22236;-79
2022/03/21 01:40:12;;;;;;;45.70;21.80;;;;;;;-1.89;52.17;102727.61;1405543;92;23543;-79
2022/03/21 01:42:39;;;;;;;51.95;22.22;;;;;;;-1.92;51.67;102730.23;1401119;93;21594;-79
2022/03/21 01:45:07;;;;;;;39.63;20.52;;;;;;;-1.93;52.49;102731.08;1389365;93;21342;-80
2022/03/21 01:47:35;;;;;;;42.13;21.70;;;;;;;-1.97;52.59;102729.39;1394211;93;23639;-80
2022/03/21 01:50:05;;;;;;;46.42;21.97;;;;;;;-2.01;53.00;102727.70;1401660;93;21423;-79
2022/03/21 01:52:31;;;;;;;47.27;21.25;;;;;;;-2.06;52.58;102719.09;1400469;92;21456;-80
2022/03/21 01:57:45;;;;;;;44.20;21.55;;;;;;;-2.09;53.23;102729.48;1406715;93;21604;-81
2022/03/21 02:00:11;;;;;;;39.03;19.70;;;;;;;-2.09;52.49;102729.48;1405909;93;21389;-81
2022/03/21 02:02:37;;;;;;;39.15;21.12;;;;;;;-2.08;52.42;102726.86;1410177;93;21457;-82
2022/03/21 02:05:04;;;;;;;38.17;21.43;;;;;;;-2.08;52.45;102722.12;1405670;93;21391;-82
2022/03/21 02:07:32;;;;;;;37.90;18.87;;;;;;;-2.10;52.85;102721.26;1402218;92;21472;-81
2022/03/21 02:09:58;;;;;;;47.55;21.02;;;;;;;-2.17;53.14;102723.05;1409349;93;21405;-80
2022/03/21 02:12:24;;;;;;;40.70;19.55;;;;;;;-2.19;53.37;102727.81;1400508;93;21479;-80
2022/03/21 02:14:51;;;;;;;44.18;22.48;;;;;;;-2.23;51.86;102728.72;1413207;93;21397;-81
2022/03/21 02:17:21;;;;;;;39.67;20.88;;;;;;;-2.23;51.65;102730.02;1402471;92;23446;-80
2022/03/21 02:19:48;;;;;;;40.65;18.35;;;;;;;-2.23;51.17;102724.38;1412775;93;21338;-79
2022/03/21 02:22:35;;;;;;;38.45;19.95;;;;;;;-2.28;53.02;102719.20;1407968;93;21501;-79
2022/03/21 02:25:34;;;;;;;37.73;20.72;;;;;;;-2.35;55.30;102717.54;1411263;92;21405;-79
2022/03/21 02:28:05;;;;;;;46.77;22.95;;;;;;;-2.43;54.91;102720.60;1401395;92;21339;-79
2022/03/21 02:30:35;;;;;;;40.43;19.73;;;;;;;-2.50;54.11;102721.08;1402117;93;21427;-80
2022/03/21 02:33:02;;;;;;;42.98;21.42;;;;;;;-2.54;55.56;102722.39;1408610;91;22085;-80
2022/03/21 02:35:31;;;;;;;40.05;21.23;;;;;;;-2.57;54.59;102723.70;1402057;93;21516;-80
2022/03/21 02:37:57;;;;;;;44.75;23.02;;;;;;;-2.60;55.12;102725.02;1404814;93;21442;-80
2022/03/21 02:40:25;;;;;;;37.55;19.67;;;;;;;-2.63;55.73;102727.19;1405066;93;21368;-80
2022/03/21 02:42:51;;;;;;;43.63;20.00;;;;;;;-2.61;55.29;102725.89;1406514;93;21457;-81
2022/03/21 02:45:17;;;;;;;38.35;19.87;;;;;;;-2.65;56.31;102731.95;1403804;93;21392;-80
2022/03/21 02:47:43;;;;;;;39.67;20.87;;;;;;;-2.68;55.16;102733.25;1401321;93;22535;-80
2022/03/21 02:50:17;;;;;;;43.40;21.68;;;;;;;-2.69;54.42;102735.43;1407480;93;22433;-81
2022/03/21 02:52:48;;;;;;;40.40;21.20;;;;;;;-2.70;53.99;102742.77;1410134;93;22432;-80
2022/03/21 02:55:14;;;;;;;44.45;21.27;;;;;;;-2.75;55.18;102738.47;1399154;93;21435;-80
2022/03/21 02:57:40;;;;;;;41.87;20.60;;;;;;;-2.75;53.99;102743.66;1402655;93;21406;-79
2022/03/21 03:00:07;;;;;;;47.23;22.20;;;;;;;-2.77;54.23;102745.82;1403629;93;22230;-79
2022/03/21 03:02:33;;;;;;;48.13;22.80;;;;;;;-2.78;53.39;102749.29;1402193;93;21405;-80
2022/03/21 03:04:59;;;;;;;39.03;21.67;;;;;;;-2.77;53.39;102753.59;1402430;93;21420;-80
2022/03/21 03:07:25;;;;;;;49.90;24.53;;;;;;;-2.80;53.14;102751.87;1405160;93;21449;-80
2022/03/21 03:09:51;;;;;;;47.00;22.27;;;;;;;-2.80;53.49;102750.58;1401154;93;21348;-80
2022/03/21 03:12:17;;;;;;;47.90;22.70;;;;;;;-2.81;55.07;102752.75;1405595;93;21429;-80
2022/03/21 03:14:43;;;;;;;44.07;23.23;;;;;;;-2.81;54.40;102751.45;1413513;93;21449;-79
2022/03/21 03:17:08;;;;;;;47.73;23.17;;;;;;;-2.82;53.71;102748.86;1395657;93;21421;-80
2022/03/21 03:19:34;;;;;;;41.80;22.13;;;;;;;-2.86;53.50;102750.60;1393586;93;22382;-80
2022/03/21 03:22:01;;;;;;;51.23;24.40;;;;;;;-2.88;54.87;102749.73;1399361;93;22225;-79
2022/03/21 03:24:28;;;;;;;42.45;22.07;;;;;;;-2.92;55.46;102756.25;1407487;93;21434;-79
2022/03/21 03:26:54;;;;;;;46.80;23.85;;;;;;;-2.94;55.20;102754.94;1399624;93;21413;-80
2022/03/21 03:29:20;;;;;;;48.65;23.80;;;;;;;-2.93;55.55;102759.28;1406166;93;21412;-80
2022/03/21 03:31:46;;;;;;;44.03;20.30;;;;;;;-2.96;56.78;102754.11;1403296;93;22321;-80
2022/03/21 03:34:12;;;;;;;46.13;21.52;;;;;;;-3.02;56.63;102758.87;1411456;90;21391;-80
2022/03/21 03:36:38;;;;;;;41.15;21.05;;;;;;;-3.05;56.75;102760.58;1402355;93;21542;-80
2022/03/21 03:39:05;;;;;;;49.03;23.57;;;;;;;-3.08;57.01;102761.48;1401762;93;23233;-80
2022/03/21 03:41:31;;;;;;;51.18;23.47;;;;;;;-3.10;57.14;102758.45;1402561;93;21501;-80
2022/03/21 03:43:58;;;;;;;49.48;23.35;;;;;;;-3.10;56.34;102761.05;1395870;93;21480;-82
2022/03/21 03:46:25;;;;;;;47.17;22.77;;;;;;;-3.12;57.25;102762.77;1404831;93;21420;-82
2022/03/21 03:48:52;;;;;;;48.33;24.95;;;;;;;-3.13;56.36;102758.47;1401104;93;22498;-82
2022/03/21 03:51:18;;;;;;;48.13;21.77;;;;;;;-3.10;56.00;102761.91;1400620;93;21427;-82
2022/03/21 03:53:44;;;;;;;48.23;23.65;;;;;;;-3.10;55.30;102762.34;1409227;93;21578;-82
2022/03/21 03:56:13;;;;;;;50.05;24.90;;;;;;;-3.12;55.35;102764.06;1400464;93;21501;-82
2022/03/21 03:58:39;;;;;;;48.80;23.80;;;;;;;-3.10;54.99;102759.31;1399618;93;21368;-82
2022/03/21 04:01:06;;;;;;;59.42;25.17;;;;;;;-3.09;55.75;102756.28;1413632;93;21442;-81
2022/03/21 04:03:46;;;;;;;48.75;23.75;;;;;;;-3.14;57.38;102757.58;1401706;93;21331;-82
2022/03/21 04:06:21;;;;;;;49.65;25.50;;;;;;;-3.16;56.93;102764.51;1405353;93;21449;-82
2022/03/21 04:08:51;;;;;;;44.35;22.00;;;;;;;-3.19;56.85;102761.93;1391075;93;21428;-82
2022/03/21 04:11:18;;;;;;;56.95;24.95;;;;;;;-3.22;58.87;102764.09;1400054;93;21434;-82
2022/03/21 04:13:46;;;;;;;45.85;22.27;;;;;;;-3.27;57.75;102769.70;1402630;93;21368;-82
2022/03/21 04:16:14;;;;;;;40.60;21.27;;;;;;;-3.28;57.44;102769.28;1401337;93;21325;-82
2022/03/21 04:18:40;;;;;;;51.75;24.43;;;;;;;-3.28;57.91;102775.75;1403230;93;22403;-82
2022/03/21 04:21:06;;;;;;;41.73;21.33;;;;;;;-3.31;58.43;102778.35;1404037;93;21332;-81
2022/03/21 04:23:32;;;;;;;51.07;22.93;;;;;;;-3.39;58.55;102769.72;1403402;93;21442;-81
2022/03/21 04:25:58;;;;;;;44.20;20.93;;;;;;;-3.44;58.13;102778.77;1398516;93;21413;-81
2022/03/21 04:28:26;;;;;;;44.93;22.48;;;;;;;-3.46;57.57;102778.34;1405991;93;22255;-82
2022/03/21 04:30:52;;;;;;;42.17;21.82;;;;;;;-3.44;57.62;102784.39;1399477;93;21399;-82
2022/03/21 04:33:18;;;;;;;40.43;21.13;;;;;;;-3.42;57.58;102785.26;1404238;91;21412;-82
2022/03/21 04:35:45;;;;;;;45.28;21.82;;;;;;;-3.38;56.96;102785.67;1408854;93;21420;-81
2022/03/21 04:38:14;;;;;;;41.13;21.90;;;;;;;-3.35;56.94;102792.14;1404553;93;21420;-83
2022/03/21 04:40:45;;;;;;;41.60;20.30;;;;;;;-3.35;57.34;102792.14;1402161;93;21937;-80
2022/03/21 04:43:13;;;;;;;40.40;22.05;;;;;;;-3.38;58.38;102797.33;1395826;93;21517;-80
2022/03/21 04:45:45;;;;;;;40.90;21.40;;;;;;;-3.41;57.34;102788.27;1396041;93;21346;-80
2022/03/21 04:48:11;;;;;;;39.00;22.13;;;;;;;-3.37;56.78;102790.41;1398403;93;21420;-80
2022/03/21 04:50:38;;;;;;;42.23;21.27;;;;;;;-3.34;56.19;102786.53;1402963;93;21428;-80
2022/03/21 04:53:06;;;;;;;40.23;20.08;;;;;;;-3.32;56.04;102789.55;1400924;93;21444;-80
2022/03/21 04:55:33;;;;;;;40.12;20.10;;;;;;;-3.26;55.94;102791.27;1400166;93;21413;-80
2022/03/21 04:58:00;;;;;;;42.60;20.90;;;;;;;-3.28;58.07;102788.70;1402851;93;21362;-80
2022/03/21 05:00:28;;;;;;;41.85;20.37;;;;;;;-3.30;57.60;102794.30;1402755;93;21457;-80
2022/03/21 05:02:54;;;;;;;38.40;20.65;;;;;;;-3.29;58.35;102794.73;1403557;93;21413;-80
2022/03/21 05:05:20;;;;;;;38.23;20.30;;;;;;;-3.28;57.87;102796.88;1396890;93;21608;-80
2022/03/21 05:07:49;;;;;;;45.30;22.03;;;;;;;-3.23;58.66;102791.27;1401982;93;21428;-80
2022/03/21 05:10:14;;;;;;;49.80;23.50;;;;;;;-3.19;58.66;102793.02;1407145;93;21687;-82
2022/03/21 05:12:40;;;;;;;42.37;22.20;;;;;;;-3.12;58.08;102789.97;1403777;93;21443;-82
2022/03/21 05:15:08;;;;;;;43.73;22.00;;;;;;;-3.06;58.59;102799.02;1403623;93;21428;-81
2022/03/21 05:17:35;;;;;;;45.05;21.12;;;;;;;-3.01;59.00;102798.59;1403145;93;21368;-81
2022/03/21 05:20:08;;;;;;;42.38;21.23;;;;;;;-2.96;57.82;102795.13;1406421;93;21420;-82
2022/03/21 05:22:30;;;;;;;110.50;25.40;;;;;;;-2.88;57.70;102795.53;1401795;93;21368;-82
2022/03/21 05:35:54;;;;;;;51.35;23.00;;;;;;;-2.43;58.13;102806.19;1424810;91;21376;-82
2022/03/21 05:38:27;;;;;;;49.10;21.87;;;;;;;-2.33;57.57;102806.59;1423076;91;21590;-82
2022/03/21 05:41:03;;;;;;;55.50;28.25;;;;;;;-2.23;57.00;102804.80;1426200;91;21961;-81
2022/03/21 05:43:32;;;;;;;208.93;96.35;;;;;;;-2.14;56.63;102812.98;1420420;91;21872;-82
2022/03/21 05:46:04;;;;;;;48.05;26.23;;;;;;;-2.01;56.72;102813.34;1419762;91;21509;-82
2022/03/21 05:51:16;;;;;;;39.27;20.52;;;;;;;-1.86;57.05;102813.69;1429230;91;21531;-82
2022/03/21 05:53:44;;;;;;;70.62;32.20;;;;;;;-1.77;57.46;102816.66;1431162;91;21449;-83
2022/03/21 05:56:11;;;;;;;42.98;21.95;;;;;;;-1.62;56.79;102821.30;1423448;91;21501;-81
2022/03/21 05:58:37;;;;;;;59.10;28.77;;;;;;;-1.48;57.10;102817.30;1422204;91;21405;-81
2022/03/21 06:01:03;;;;;;;48.87;25.63;;;;;;;-1.34;56.61;102809.41;1421245;91;22211;-80
2022/03/21 06:03:29;;;;;;;49.25;26.07;;;;;;;-1.21;56.96;102811.45;1423296;91;21715;-81
2022/03/21 06:05:57;;;;;;;44.65;24.43;;;;;;;-1.07;56.87;102814.78;1422854;91;21280;-81
2022/03/21 06:08:24;;;;;;;50.20;21.87;;;;;;;-0.92;57.48;102817.25;1416355;91;22417;-82
2022/03/21 06:11:03;;;;;;;46.05;23.95;;;;;;;-0.76;55.65;102817.94;1419792;91;21405;-80
2022/03/21 06:13:18;;;;;;;87.30;44.48;;;;;;;-0.57;55.39;102818.61;1427715;91;21560;-79
2022/03/21 06:15:47;;;;;;;35.35;19.57;;;;;;;-0.37;55.32;102825.32;1421692;91;21614;-82
2022/03/21 06:18:13;;;;;;;48.33;23.55;;;;;;;-0.22;53.99;102827.72;1427871;91;21475;-82
2022/03/21 06:20:39;;;;;;;41.25;20.65;;;;;;;-0.08;53.69;102824.50;1428891;91;21554;-82
2022/03/21 06:23:06;;;;;;;52.75;30.35;;;;;;;0.10;53.52;102822.52;1429184;91;22168;-82
2022/03/21 06:25:37;;;;;;;39.45;21.10;;;;;;;0.27;53.32;102830.95;1415630;91;21853;-82
2022/03/21 06:28:03;;;;;;;59.00;32.03;;;;;;;0.42;52.79;102832.01;1422140;91;21637;-82
2022/03/21 06:30:29;;;;;;;61.35;30.50;;;;;;;0.63;52.75;102839.95;1417648;91;21376;-80
2022/03/21 06:32:55;;;;;;;71.50;36.93;;;;;;;0.82;52.25;102836.58;1420125;91;21442;-79
2022/03/21 06:35:21;;;;;;;75.27;35.97;;;;;;;1.00;51.97;102833.23;1429314;90;21457;-79
2022/03/21 06:37:51;;;;;;;83.07;46.40;;;;;;;1.19;52.02;102835.94;1430803;91;21413;-79
2022/03/21 06:40:17;;;;;;;91.90;50.65;;;;;;;1.32;51.06;102838.74;1427793;91;21397;-79
2022/03/21 06:42:43;;;;;;;75.20;42.00;;;;;;;1.52;51.07;102842.69;1431007;91;21420;-79
2022/03/21 06:45:09;;;;;;;51.00;28.42;;;;;;;1.68;50.53;102838.04;1428569;91;21494;-79
2022/03/21 06:47:35;;;;;;;59.15;33.42;;;;;;;1.85;50.31;102841.61;1417377;91;21413;-79
2022/03/21 06:50:03;;;;;;;31.35;17.90;;;;;;;2.03;50.09;102839.89;1420912;91;22285;-79
2022/03/21 06:52:29;;;;;;;35.17;19.02;;;;;;;2.17;47.15;102848.29;1352401;91;21383;-79
2022/03/21 06:54:55;;;;;;;29.13;17.23;;;;;;;2.37;47.23;102846.98;1356466;91;21389;-79
2022/03/21 06:57:21;;;;;;;45.43;24.47;;;;;;;2.53;47.24;102843.09;1438986;91;21607;-79
2022/03/21 06:59:47;;;;;;;36.03;19.00;;;;;;;2.70;48.16;102846.19;1444439;90;21427;-79
2022/03/21 07:02:15;;;;;;;31.55;19.55;;;;;;;2.84;46.16;102841.04;1423036;91;21345;-79
2022/03/21 07:04:41;;;;;;;25.95;15.32;;;;;;;3.00;44.78;102848.06;1422191;90;21944;-78
2022/03/21 07:07:07;;;;;;;36.27;19.73;;;;;;;3.13;44.01;102837.20;1423863;92;21629;-78
2022/03/21 07:09:33;;;;;;;29.10;15.97;;;;;;;3.31;45.64;102837.61;1416174;92;21444;-78
2022/03/21 07:11:59;;;;;;;34.20;18.53;;;;;;;3.48;43.65;102831.91;1426847;92;22322;-79
2022/03/21 07:14:25;;;;;;;31.63;17.80;;;;;;;3.64;44.85;102836.28;1419356;92;22338;-78
2022/03/21 07:16:51;;;;;;;35.33;20.43;;;;;;;3.85;45.10;102836.95;1421429;92;21392;-79
2022/03/21 07:19:17;;;;;;;30.33;18.17;;;;;;;3.96;43.40;102830.95;1414850;91;21533;-78
2022/03/21 07:21:43;;;;;;;33.47;18.40;;;;;;;4.15;43.42;102839.58;1423498;92;21624;-78
2022/03/21 07:24:09;;;;;;;25.73;15.03;;;;;;;4.30;43.25;102837.78;1419923;92;21497;-78
2022/03/21 07:26:36;;;;;;;26.40;15.30;;;;;;;4.46;41.38;102837.70;1430029;92;21429;-78
2022/03/21 07:29:04;;;;;;;23.47;14.77;;;;;;;4.63;41.45;102834.54;1417786;92;21621;-78
2022/03/21 07:31:31;;;;;;;31.37;14.47;;;;;;;4.73;40.44;102829.84;1424533;90;21782;-79
2022/03/21 07:33:57;;;;;;;37.83;16.50;;;;;;;4.93;40.78;102831.79;1406727;91;21423;-79
2022/03/21 07:36:23;;;;;;;32.40;18.47;;;;;;;5.11;40.34;102834.23;1476970;91;22354;-79
2022/03/21 07:38:49;;;;;;;32.33;16.23;;;;;;;5.28;41.15;102829.70;1508050;90;21426;-79
2022/03/21 07:41:15;;;;;;;31.83;16.63;;;;;;;5.47;40.84;102823.31;1357520;91;22454;-79
2022/03/21 07:43:41;;;;;;;20.80;11.97;;;;;;;5.63;40.13;102818.75;1497131;91;21295;-79
2022/03/21 07:48:51;;;;;;;21.70;12.10;;;;;;;5.88;38.75;102817.84;1508331;91;22124;-79
2022/03/21 07:51:18;;;;;;;22.57;13.43;;;;;;;5.93;36.24;102815.02;1455481;91;22530;-79
2022/03/21 07:53:44;;;;;;;32.43;16.70;;;;;;;6.07;36.99;102821.94;1357136;91;21747;-79
2022/03/21 07:56:10;;;;;;;87.87;52.83;;;;;;;6.46;38.32;102806.81;1493584;91;21745;-79
2022/03/21 07:58:36;;;;;;;57.70;36.53;;;;;;;6.46;38.32;102806.81;1387444;91;22932;-79
2022/03/21 08:01:03;;;;;;;31.20;18.10;;;;;;;6.70;37.07;102815.46;1356733;91;22204;-79
2022/03/21 08:03:29;;;;;;;25.37;15.23;;;;;;;6.74;34.84;102808.70;1436824;91;21981;-81
2022/03/21 08:06:02;;;;;;;25.87;14.50;;;;;;;6.84;35.71;102813.57;1357106;91;22119;-81
2022/03/21 08:08:23;;;;;;;39.13;22.10;;;;;;;6.92;34.80;102800.47;1484281;91;22068;-81
2022/03/21 08:10:49;;;;;;;27.57;14.60;;;;;;;7.00;35.34;102808.05;1370681;91;22001;-80
2022/03/21 08:13:17;;;;;;;24.90;13.00;;;;;;;7.04;33.66;102803.03;1357401;91;21494;-81
2022/03/21 08:15:44;;;;;;;20.33;12.50;;;;;;;7.21;33.55;102799.20;1411202;91;22062;-81
2022/03/21 08:18:12;;;;;;;27.03;14.27;;;;;;;7.30;33.93;102801.03;1367287;91;22075;-81
2022/03/21 08:20:43;;;;;;;18.37;11.70;;;;;;;7.47;32.61;102793.23;1431623;91;22279;-81
2022/03/21 08:23:11;;;;;;;317.77;143.63;;;;;;;7.47;32.61;102793.23;1432761;91;21478;-80
2022/03/21 08:25:43;;;;;;;51.40;27.03;;;;;;;7.74;34.30;102795.07;1428363;91;22121;-81
2022/03/21 08:28:10;;;;;;;33.10;19.17;;;;;;;7.94;33.93;102794.14;1428862;90;22158;-80
2022/03/21 08:30:38;;;;;;;19.77;11.83;;;;;;;8.05;31.65;102793.61;1419656;91;24344;-80
2022/03/21 08:33:06;;;;;;;46.20;24.53;;;;;;;8.05;31.29;102790.50;1420993;90;21488;-81
2022/03/21 08:35:40;;;;;;;21.93;10.53;;;;;;;8.25;31.39;102784.73;1425397;91;21493;-80
2022/03/21 08:38:04;;;;;;;17.87;9.98;;;;;;;8.28;29.61;102782.79;1415897;91;21441;-81
2022/03/21 08:40:30;;;;;;;17.97;10.20;;;;;;;8.24;28.93;102773.33;1426838;91;21862;-80
2022/03/21 08:42:57;;;;;;;23.73;11.50;;;;;;;8.33;29.99;102779.94;1408201;91;21383;-81
2022/03/21 08:45:24;;;;;;;26.07;13.00;;;;;;;8.53;30.50;102775.87;1427887;91;21376;-81
2022/03/21 08:47:56;;;;;;;45.70;24.73;;;;;;;8.61;28.92;102782.09;1353409;91;21347;-81
2022/03/21 08:50:22;;;;;;;65.63;33.13;;;;;;;8.84;30.68;102769.52;1494458;91;21310;-81
2022/03/21 08:52:48;;;;;;;16.03;10.37;;;;;;;9.08;30.21;102768.22;1350304;91;21295;-80
2022/03/21 08:55:14;;;;;;;23.07;12.33;;;;;;;9.00;28.20;102764.65;1354354;91;21325;-81
2022/03/21 08:57:40;;;;;;;19.17;10.93;;;;;;;9.14;29.37;102769.69;1433857;91;21324;-81
2022/03/21 09:00:10;;;;;;;19.43;11.53;;;;;;;9.18;27.50;102762.84;1354100;91;21302;-80
2022/03/21 09:02:36;;;;;;;63.83;31.63;;;;;;;9.41;28.17;102757.65;1350214;91;21295;-81
2022/03/21 09:05:06;;;;;;;58.30;28.20;;;;;;;9.66;28.09;102761.58;1369889;91;21288;-81
2022/03/21 09:07:32;;;;;;;17.17;9.00;;;;;;;9.86;28.71;102761.31;1350721;91;22174;-80
2022/03/21 09:09:58;;;;;;;20.33;12.03;;;;;;;9.76;25.90;102756.17;1353775;91;21384;-78
2022/03/21 09:12:24;;;;;;;45.63;22.40;;;;;;;10.00;27.88;102753.09;1356517;91;21525;-78
2022/03/21 09:14:50;;;;;;;15.20;8.47;;;;;;;10.11;25.91;102741.42;1470672;91;21339;-78
2022/03/21 09:17:16;;;;;;;18.40;11.43;;;;;;;10.23;25.49;102748.64;1502015;91;22197;-81
2022/03/21 09:19:42;;;;;;;29.77;17.40;;;;;;;10.41;26.03;102752.52;1353234;91;21257;-80
2022/03/21 09:22:08;;;;;;;11.10;7.40;;;;;;;10.54;27.13;102746.89;1409251;91;21438;-79
2022/03/21 09:24:34;;;;;;;38.47;19.40;;;;;;;10.54;24.89;102745.57;1413829;91;21405;-79
2022/03/21 09:27:00;;;;;;;17.63;11.03;;;;;;;10.69;24.06;102743.33;1421703;91;21456;-79
2022/03/21 09:29:26;;;;;;;10.87;7.57;;;;;;;10.81;25.94;102740.41;1406436;91;21428;-79
2022/03/21 09:31:52;;;;;;;11.83;6.67;;;;;;;10.51;23.50;102743.11;1425217;91;22440;-79
2022/03/21 09:34:19;;;;;;;9.47;6.93;;;;;;;10.60;23.78;102738.58;1426665;91;22535;-79
2022/03/21 09:36:47;;;;;;;13.10;7.90;;;;;;;10.80;24.61;102738.71;1420718;91;21486;-79
2022/03/21 09:39:14;;;;;;;15.77;9.53;;;;;;;10.86;24.60;102728.22;1429590;91;22804;-79
2022/03/21 09:41:40;;;;;;;16.80;8.33;;;;;;;10.87;23.70;102727.27;1353576;91;22188;-79
2022/03/21 09:44:09;;;;;;;30.60;17.97;;;;;;;11.06;25.39;102731.34;1409004;91;21406;-79
2022/03/21 09:46:38;;;;;;;17.90;11.23;;;;;;;11.34;25.56;102725.66;1415212;91;21398;-79
2022/03/21 09:49:08;;;;;;;14.70;8.53;;;;;;;11.45;24.97;102721.86;1424179;91;21575;-79
2022/03/21 09:51:34;;;;;;;14.57;7.63;;;;;;;11.53;24.77;102717.38;1407323;91;21493;-79
2022/03/21 09:54:01;;;;;;;11.00;6.57;;;;;;;11.37;22.65;102719.31;1425072;91;22047;-79
2022/03/21 09:56:28;;;;;;;10.20;7.10;;;;;;;11.32;23.52;102722.72;1352734;91;22599;-79
2022/03/21 09:59:01;;;;;;;10.67;7.77;;;;;;;11.19;23.74;102712.90;1352486;91;21355;-79
2022/03/21 10:01:29;;;;;;;10.10;6.77;;;;;;;11.07;24.01;102711.84;1467841;91;21419;-78
2022/03/21 10:03:57;;;;;;;11.33;7.93;;;;;;;11.20;24.71;102713.27;1428933;91;21353;-79
2022/03/21 10:06:40;;;;;;;34.20;16.53;;;;;;;11.21;24.48;102713.63;1430879;91;21487;-79
2022/03/21 10:09:19;;;;;;;11.47;8.57;;;;;;;11.59;25.50;102714.32;1426659;91;21399;-79
2022/03/21 10:11:57;;;;;;;25.30;16.53;;;;;;;11.87;25.06;102703.30;1406284;91;21317;-79
2022/03/21 10:14:36;;;;;;;15.63;8.53;;;;;;;12.19;24.90;102695.36;1422138;91;22337;-79
2022/03/21 10:17:13;;;;;;;14.73;7.77;;;;;;;12.47;23.57;102689.52;1424923;91;21501;-79
2022/03/21 10:19:47;;;;;;;21.60;9.47;;;;;;;12.37;22.86;102688.44;1420141;91;22351;-79
2022/03/21 10:22:20;;;;;;;48.43;25.93;;;;;;;12.39;24.06;102690.52;1425652;91;21501;-79
2022/03/21 10:24:50;;;;;;;16.30;9.80;;;;;;;12.54;24.43;102690.78;1417034;91;21390;-79
2022/03/21 10:27:32;;;;;;;63.20;13.55;;;;;;;12.65;23.09;102688.24;1430013;91;22263;-79
2022/03/21 10:30:03;;;;;;;14.80;8.63;;;;;;;12.90;24.57;102686.55;1430801;91;22338;-80
2022/03/21 10:32:39;;;;;;;11.83;8.88;;;;;;;13.23;24.57;102680.63;1434820;91;21390;-80
2022/03/21 10:35:18;;;;;;;16.00;8.77;;;;;;;13.47;23.83;102678.06;1425062;91;22720;-79
2022/03/21 10:38:03;;;;;;;10.10;8.57;;;;;;;13.64;23.94;102682.16;1429907;91;21449;-80
2022/03/21 10:40:33;;;;;;;11.80;8.33;;;;;;;13.90;23.60;102676.22;1422216;91;21288;-79
2022/03/21 10:43:06;;;;;;;14.70;9.25;;;;;;;14.07;22.87;102670.09;1427120;91;22056;-79
2022/03/21 10:45:49;;;;;;;13.67;8.30;;;;;;;14.29;23.34;102663.50;1427684;91;23192;-80
2022/03/21 10:48:22;;;;;;;12.43;8.37;;;;;;;14.47;22.83;102661.23;1424829;91;21360;-80
2022/03/21 10:50:51;;;;;;;20.27;8.80;;;;;;;14.53;22.23;102651.95;1422704;91;21896;-80
2022/03/21 10:53:21;;;;;;;16.50;8.73;;;;;;;14.38;20.85;102648.14;1431558;91;21420;-78
2022/03/21 10:56:09;;;;;;;12.17;8.83;;;;;;;14.32;21.62;102645.95;1424924;91;21407;-78
2022/03/21 10:58:47;;;;;;;17.30;9.60;;;;;;;14.34;22.52;102646.70;1425720;91;21442;-81
2022/03/21 11:01:19;;;;;;;32.70;20.00;;;;;;;13.96;21.13;102629.17;1426765;91;21531;-81
2022/03/21 11:03:49;;;;;;;15.77;10.30;;;;;;;14.03;22.57;102634.03;1440485;91;21354;-80
2022/03/21 11:06:16;;;;;;;;;;;;;;;14.18;21.23;102628.86;1422821;90;21947;-80
2022/03/21 11:08:47;;;;;;;13.93;8.40;;;;;;;14.13;22.63;102629.72;1418673;91;20773;-80
2022/03/21 11:11:13;;;;;;;11.87;8.63;;;;;;;14.21;21.00;102617.51;1426273;91;21827;-80
2022/03/21 11:13:40;;;;;;;12.00;8.20;;;;;;;14.40;22.57;102617.41;1422807;91;21553;-80
2022/03/21 11:16:07;;;;;;;14.63;8.83;;;;;;;14.17;20.18;102617.84;1427073;91;22197;-80
2022/03/21 11:18:33;;;;;;;16.03;9.30;;;;;;;14.21;21.56;102607.31;1427903;91;21442;-80
2022/03/21 11:21:01;;;;;;;28.83;19.07;;;;;;;14.24;21.42;102597.75;1424329;91;21516;-80
2022/03/21 11:23:27;;;;;;;39.27;21.30;;;;;;;14.48;22.35;102603.49;1417909;91;22315;-81
2022/03/21 11:26:04;;;;;;;68.53;39.97;;;;;;;14.73;21.66;102597.96;1426134;91;21442;-81
2022/03/21 11:29:11;;;;;;;18.97;10.87;;;;;;;14.95;22.05;102601.56;1423448;90;21686;-81
2022/03/21 11:32:17;;;;;;;18.87;12.77;;;;;;;15.16;21.70;102597.14;1426671;91;21434;-81
2022/03/21 11:35:07;;;;;;;9.17;6.70;;;;;;;15.20;20.79;102594.60;1403684;93;21378;-81